Time;durP1;ratioP1;P1;durP2;ratioP2;P2;SDS_P1;SDS_P2;PMS_P1;PMS_P2;Temp;Humidity;BMP_temperature;BMP_pressure;BME280_temperature;BME280_humidity;BME280_pressure;Samples;Min_cycle;Max_cycle;Signal;HPM_P1;HPM_P2
2022/10/28 00:00:25;;;;;;;6.43;2.65;;;15.40;99.90;;;;;;5011530;28;20030;-86
2022/10/28 00:02:51;;;;;;;6.45;2.83;;;15.40;99.90;;;;;;5010766;28;20133;-87
2022/10/28 00:05:17;;;;;;;5.93;2.03;;;15.40;99.90;;;;;;5010329;28;20117;-87
2022/10/28 00:07:42;;;;;;;11.73;3.17;;;15.40;99.90;;;;;;5011410;28;20032;-87
2022/10/28 00:10:08;;;;;;;12.65;2.72;;;15.40;99.90;;;;;;5011729;28;20026;-87
2022/10/28 00:12:36;;;;;;;9.68;2.53;;;15.40;99.90;;;;;;5010795;28;20045;-87
2022/10/28 00:15:03;;;;;;;8.18;2.67;;;15.50;99.90;;;;;;5010519;28;20038;-87
2022/10/28 00:17:29;;;;;;;5.20;2.55;;;15.50;99.90;;;;;;5009982;28;20509;-87
2022/10/28 00:19:54;;;;;;;5.93;2.53;;;15.50;99.90;;;;;;5010227;28;20062;-88
2022/10/28 00:22:20;;;;;;;3.97;2.47;;;15.50;99.90;;;;;;5009321;28;20026;-87
2022/10/28 00:24:46;;;;;;;12.95;1.98;;;15.50;99.90;;;;;;5010317;28;20052;-87
2022/10/28 00:27:11;;;;;;;5.65;2.55;;;15.50;99.90;;;;;;5011008;28;20421;-87
2022/10/28 00:29:37;;;;;;;12.50;2.47;;;15.50;99.90;;;;;;5009960;28;20044;-87
2022/10/28 00:32:03;;;;;;;5.05;2.75;;;15.50;99.90;;;;;;5011202;28;20030;-88
2022/10/28 00:34:29;;;;;;;11.27;3.15;;;15.60;99.90;;;;;;5010688;28;20041;-87
2022/10/28 00:36:54;;;;;;;6.00;2.65;;;15.60;99.90;;;;;;5011389;28;20026;-87
2022/10/28 00:39:23;;;;;;;9.50;1.80;;;15.60;99.90;;;;;;5011516;28;20026;-87
2022/10/28 00:41:58;;;;;;;8.48;2.38;;;15.50;99.90;;;;;;5011421;28;20026;-87
2022/10/28 00:44:42;;;;;;;7.05;2.30;;;15.60;99.90;;;;;;5011508;28;20037;-87
2022/10/28 00:47:26;;;;;;;3.83;1.92;;;15.60;99.90;;;;;;5015089;28;20029;-87
2022/10/28 00:50:01;;;;;;;6.78;3.25;;;15.60;99.90;;;;;;5013922;28;20030;-87
2022/10/28 00:52:30;;;;;;;8.55;2.35;;;15.70;99.90;;;;;;5013918;28;20022;-89
2022/10/28 00:54:58;;;;;;;7.07;2.83;;;15.70;99.90;;;;;;5006000;28;20034;-85
2022/10/28 00:57:29;;;;;;;10.15;3.75;;;15.70;99.90;;;;;;5013580;28;20030;-86
2022/10/28 00:59:57;;;;;;;9.88;3.35;;;15.70;99.90;;;;;;5013536;28;20042;-86
2022/10/28 01:02:22;;;;;;;6.72;3.20;;;15.70;99.90;;;;;;5013903;28;20037;-85
2022/10/28 01:04:49;;;;;;;4.15;2.72;;;15.70;99.90;;;;;;5018035;28;20030;-85
2022/10/28 01:07:15;;;;;;;6.00;2.45;;;15.60;99.90;;;;;;5024938;28;20021;-86
2022/10/28 01:09:41;;;;;;;8.43;2.90;;;15.60;99.90;;;;;;5037850;28;20075;-85
2022/10/28 01:12:34;;;;;;;19.73;3.45;;;15.60;99.90;;;;;;5012771;28;20119;-87
2022/10/28 01:15:06;;;;;;;4.43;2.10;;;15.60;99.90;;;;;;5018434;28;20065;-87
2022/10/28 01:17:45;;;;;;;;;;;15.60;99.90;;;;;;5032884;28;20048;-87
2022/10/28 01:20:52;;;;;;;5.50;1.95;;;15.60;99.90;;;;;;5033165;28;20327;-86
2022/10/28 01:24:01;;;;;;;3.97;1.92;;;15.60;99.90;;;;;;5022100;28;20052;-86
2022/10/28 01:27:18;;;;;;;8.10;2.47;;;15.60;99.90;;;;;;5034166;28;20034;-87
2022/10/28 01:30:13;;;;;;;7.13;2.28;;;15.50;99.90;;;;;;5021963;28;20493;-87
2022/10/28 01:33:25;;;;;;;8.77;3.08;;;15.60;99.90;;;;;;5032023;28;20124;-87
2022/10/28 01:36:38;;;;;;;5.07;2.00;;;15.60;99.90;;;;;;5032597;28;20041;-86
2022/10/28 01:39:10;;;;;;;8.82;2.30;;;15.60;99.90;;;;;;5032423;28;20061;-86
2022/10/28 01:42:15;;;;;;;4.03;2.08;;;15.60;99.90;;;;;;5021700;28;20030;-86
2022/10/28 01:45:05;;;;;;;8.45;2.30;;;15.70;99.90;;;;;;5012941;28;20378;-86
2022/10/28 01:47:39;;;;;;;3.70;1.90;;;15.70;99.90;;;;;;5013372;28;20030;-87
2022/10/28 01:50:14;;;;;;;16.00;2.45;;;15.70;99.90;;;;;;5012870;28;20036;-87
2022/10/28 01:52:42;;;;;;;2.78;1.50;;;15.70;99.90;;;;;;5011666;28;20037;-86
2022/10/28 01:55:22;;;;;;;14.80;1.95;;;15.80;99.90;;;;;;5012137;28;20022;-88
2022/10/28 01:57:51;;;;;;;14.60;2.13;;;15.90;99.90;;;;;;5012142;28;20110;-86
2022/10/28 02:00:17;;;;;;;4.93;2.33;;;15.90;99.90;;;;;;5012248;28;20022;-87
2022/10/28 02:02:45;;;;;;;6.07;2.47;;;15.90;99.90;;;;;;5027486;28;20034;-87
2022/10/28 02:05:45;;;;;;;7.75;1.98;;;16.00;99.90;;;;;;5012402;28;20482;-87
2022/10/28 02:08:17;;;;;;;7.32;3.03;;;16.00;99.90;;;;;;5011960;28;20065;-87
2022/10/28 02:10:48;;;;;;;3.70;1.70;;;16.00;99.90;;;;;;5013025;28;20033;-87
2022/10/28 02:13:15;;;;;;;5.85;2.40;;;16.10;99.90;;;;;;5012417;28;20556;-87
2022/10/28 02:15:49;;;;;;;11.52;2.38;;;16.10;99.90;;;;;;5012082;28;20033;-87
2022/10/28 02:18:34;;;;;;;4.18;1.55;;;16.10;99.90;;;;;;5011763;28;20103;-87
2022/10/28 02:21:24;;;;;;;6.25;1.88;;;16.20;99.90;;;;;;5012970;28;20029;-87
2022/10/28 02:24:02;;;;;;;3.50;1.70;;;16.20;99.90;;;;;;5011265;28;20113;-87
2022/10/28 02:26:37;;;;;;;9.60;2.58;;;16.20;99.90;;;;;;5011929;28;20053;-88
2022/10/28 02:29:30;;;;;;;9.43;1.88;;;16.20;99.90;;;;;;5012592;28;20025;-87
2022/10/28 02:32:03;;;;;;;3.85;2.00;;;16.30;99.90;;;;;;5011633;28;20018;-87
2022/10/28 02:34:42;;;;;;;11.07;2.22;;;16.30;99.90;;;;;;4994834;28;20036;-88
2022/10/28 02:37:18;;;;;;;5.22;1.85;;;16.30;99.90;;;;;;5011577;28;20037;-88
2022/10/28 02:39:51;;;;;;;2.83;1.70;;;16.30;99.90;;;;;;5011468;28;20037;-87
2022/10/28 02:42:35;;;;;;;6.07;2.65;;;16.40;99.90;;;;;;4995065;28;20076;-87
2022/10/28 02:45:16;;;;;;;3.53;2.03;;;16.40;99.90;;;;;;5011307;28;20037;-87
2022/10/28 02:47:55;;;;;;;12.95;3.33;;;16.50;99.90;;;;;;4996838;28;20044;-85
2022/10/28 02:50:29;;;;;;;6.90;2.30;;;16.50;99.90;;;;;;4966688;28;20055;-70
2022/10/28 02:52:59;;;;;;;3.78;2.03;;;16.50;99.90;;;;;;4951606;29;20034;-69
2022/10/28 02:55:34;;;;;;;4.15;1.83;;;16.50;99.90;;;;;;4952330;28;20031;-70
2022/10/28 02:58:00;;;;;;;4.00;1.65;;;16.50;99.90;;;;;;4952057;28;20031;-70
2022/10/28 03:00:26;;;;;;;3.53;1.20;;;16.50;99.90;;;;;;4967974;28;20054;-70
2022/10/28 03:02:52;;;;;;;4.35;1.90;;;16.50;99.90;;;;;;4967325;28;20035;-70
2022/10/28 03:05:17;;;;;;;9.23;2.58;;;16.50;99.90;;;;;;4953346;28;20492;-69
2022/10/28 03:07:43;;;;;;;3.28;1.58;;;16.50;99.90;;;;;;4952759;28;20034;-69
2022/10/28 03:10:09;;;;;;;3.30;1.65;;;16.50;99.90;;;;;;4952959;28;20122;-69
2022/10/28 03:12:35;;;;;;;7.85;2.67;;;16.50;99.90;;;;;;4952820;29;20045;-69
2022/10/28 03:15:01;;;;;;;4.22;1.65;;;16.50;99.90;;;;;;4963743;28;20022;-69
2022/10/28 03:17:27;;;;;;;8.90;1.90;;;16.50;99.90;;;;;;4991792;28;20070;-69
2022/10/28 03:19:53;;;;;;;11.50;2.28;;;16.50;99.90;;;;;;4990374;28;20053;-70
2022/10/28 03:22:19;;;;;;;9.15;1.80;;;16.50;99.90;;;;;;4990930;28;20026;-69
2022/10/28 03:24:44;;;;;;;3.75;2.05;;;16.50;99.90;;;;;;4990085;28;20026;-70
2022/10/28 03:27:10;;;;;;;3.88;2.25;;;16.50;99.90;;;;;;4991553;28;20053;-70
2022/10/28 03:29:36;;;;;;;8.73;1.90;;;16.60;99.90;;;;;;4991599;28;20042;-69
2022/10/28 03:32:01;;;;;;;5.65;2.58;;;16.60;99.90;;;;;;4991573;28;20054;-69
2022/10/28 03:34:27;;;;;;;7.10;1.83;;;16.70;99.90;;;;;;4990557;28;20042;-70
2022/10/28 03:36:53;;;;;;;4.00;1.30;;;16.70;99.90;;;;;;4991571;28;20037;-68
2022/10/28 03:39:18;;;;;;;2.80;1.38;;;16.70;99.90;;;;;;4991325;28;20038;-68
2022/10/28 03:41:44;;;;;;;4.95;1.17;;;16.80;99.90;;;;;;4991378;28;20034;-67
2022/10/28 03:44:10;;;;;;;6.88;1.60;;;16.80;99.90;;;;;;4990553;28;20173;-68
2022/10/28 03:46:36;;;;;;;5.55;1.30;;;16.80;99.90;;;;;;4991255;28;20038;-68
2022/10/28 03:49:02;;;;;;;2.92;1.30;;;16.80;99.90;;;;;;4989864;28;20096;-68
2022/10/28 03:51:28;;;;;;;4.82;1.85;;;16.80;99.90;;;;;;4990028;28;20117;-68
2022/10/28 03:53:54;;;;;;;11.95;2.55;;;16.80;99.90;;;;;;4989253;28;20075;-69
2022/10/28 03:56:19;;;;;;;6.40;2.08;;;16.80;99.90;;;;;;4991105;28;20027;-69
2022/10/28 03:58:49;;;;;;;7.32;2.38;;;16.80;99.90;;;;;;4990001;28;20045;-68
2022/10/28 04:01:15;;;;;;;2.17;1.17;;;16.80;99.90;;;;;;4991097;28;20437;-68
2022/10/28 04:03:40;;;;;;;11.93;2.10;;;16.80;99.90;;;;;;5005325;28;20101;-69
2022/10/28 04:06:08;;;;;;;11.43;1.77;;;16.80;99.90;;;;;;4990928;28;20720;-69
2022/10/28 04:08:35;;;;;;;4.45;1.80;;;16.80;99.90;;;;;;4989948;28;20030;-69
2022/10/28 04:11:01;;;;;;;3.17;1.48;;;16.80;99.90;;;;;;4989679;28;20076;-68
2022/10/28 04:13:27;;;;;;;3.17;1.55;;;16.80;99.90;;;;;;4988597;28;20042;-68
2022/10/28 04:15:52;;;;;;;8.50;1.65;;;16.80;99.90;;;;;;4976815;28;20043;-68
2022/10/28 04:18:18;;;;;;;7.85;1.40;;;16.90;99.90;;;;;;4954340;28;20041;-71
2022/10/28 04:20:45;;;;;;;10.02;1.55;;;16.80;99.90;;;;;;4974829;28;20573;-70
2022/10/28 04:23:17;;;;;;;1.98;1.02;;;16.80;99.90;;;;;;4974902;28;20487;-69
2022/10/28 04:25:43;;;;;;;6.72;1.58;;;16.80;99.90;;;;;;4974023;28;20495;-68
2022/10/28 04:28:08;;;;;;;12.10;1.83;;;16.90;99.90;;;;;;4975419;28;20034;-69
2022/10/28 04:30:34;;;;;;;2.97;1.35;;;16.90;99.90;;;;;;4973993;28;20488;-68
2022/10/28 04:33:08;;;;;;;6.30;1.70;;;16.90;99.90;;;;;;4974639;28;20039;-69
2022/10/28 04:35:44;;;;;;;;;;;16.80;99.90;;;;;;4989746;28;20061;-69
2022/10/28 04:38:11;;;;;;;7.20;1.48;;;16.80;99.90;;;;;;4975320;28;19949;-70
2022/10/28 04:40:37;;;;;;;3.17;1.38;;;16.80;99.90;;;;;;4974265;28;20031;-70
2022/10/28 04:43:03;;;;;;;2.75;1.65;;;16.80;99.90;;;;;;4974568;28;20368;-70
2022/10/28 04:45:30;;;;;;;12.65;2.08;;;16.80;99.90;;;;;;4973737;28;20049;-70
2022/10/28 04:48:00;;;;;;;7.32;2.00;;;16.70;99.90;;;;;;4974898;28;20042;-70
2022/10/28 04:50:26;;;;;;;4.15;1.85;;;16.60;99.90;;;;;;4975243;28;20026;-70
2022/10/28 04:52:55;;;;;;;7.15;1.80;;;16.60;99.90;;;;;;4974510;28;20061;-70
2022/10/28 04:55:20;;;;;;;3.80;1.88;;;16.60;99.90;;;;;;4974886;28;20399;-70
2022/10/28 04:57:58;;;;;;;6.25;1.63;;;16.70;99.90;;;;;;4973441;28;20479;-70
2022/10/28 05:00:25;;;;;;;6.57;1.45;;;16.70;99.90;;;;;;4974827;28;20090;-70
2022/10/28 05:02:51;;;;;;;9.10;2.53;;;16.70;99.90;;;;;;4973924;28;20034;-70
2022/10/28 05:05:18;;;;;;;7.32;2.22;;;16.70;99.90;;;;;;4973388;28;20035;-70
2022/10/28 05:07:44;;;;;;;5.05;1.88;;;16.70;99.90;;;;;;4973507;28;20026;-70
2022/10/28 05:10:11;;;;;;;6.68;1.60;;;16.80;99.90;;;;;;4973426;28;20031;-70
2022/10/28 05:12:40;;;;;;;8.00;1.67;;;16.80;99.90;;;;;;4974227;28;20110;-70
2022/10/28 05:15:07;;;;;;;2.20;1.38;;;16.80;99.90;;;;;;4974449;28;20093;-70
2022/10/28 05:17:33;;;;;;;4.95;1.95;;;16.70;99.90;;;;;;4974482;28;20037;-70
2022/10/28 05:19:58;;;;;;;2.75;1.40;;;16.70;99.90;;;;;;4972894;28;20035;-70
2022/10/28 05:22:24;;;;;;;8.05;2.25;;;16.70;99.90;;;;;;4973677;28;20105;-70
2022/10/28 05:24:50;;;;;;;5.97;1.83;;;16.70;99.90;;;;;;4956708;28;20568;-70
2022/10/28 05:27:15;;;;;;;5.10;1.60;;;16.60;99.90;;;;;;4974149;28;20113;-69
2022/10/28 05:29:41;;;;;;;4.80;1.42;;;16.60;99.90;;;;;;4972457;28;20038;-70
2022/10/28 05:32:07;;;;;;;5.40;1.50;;;16.60;99.90;;;;;;4974138;28;20403;-70
2022/10/28 05:34:32;;;;;;;6.43;1.88;;;16.50;99.90;;;;;;4973471;28;20395;-70
2022/10/28 05:36:58;;;;;;;8.48;2.17;;;16.50;99.90;;;;;;4974356;28;20046;-70
2022/10/28 05:39:24;;;;;;;4.00;1.27;;;16.50;99.90;;;;;;4972604;28;20043;-70
2022/10/28 05:41:49;;;;;;;3.72;1.60;;;16.50;99.90;;;;;;4973999;28;20035;-70
2022/10/28 05:44:15;;;;;;;2.63;1.75;;;16.50;99.90;;;;;;4973138;28;20042;-69
2022/10/28 05:46:40;;;;;;;4.40;1.83;;;16.30;99.90;;;;;;4973788;28;20031;-69
2022/10/28 05:49:06;;;;;;;4.47;1.35;;;16.20;99.90;;;;;;4972551;28;20399;-70
2022/10/28 05:51:32;;;;;;;5.32;2.17;;;16.10;99.90;;;;;;4972840;28;20031;-68
2022/10/28 05:53:58;;;;;;;12.10;2.50;;;16.10;99.90;;;;;;4971915;28;20073;-68
2022/10/28 05:56:23;;;;;;;5.65;2.15;;;16.10;99.90;;;;;;4973845;28;20439;-69
2022/10/28 05:58:49;;;;;;;6.75;2.42;;;16.00;99.90;;;;;;4973673;28;20113;-69
2022/10/28 06:01:15;;;;;;;2.70;1.40;;;15.90;99.90;;;;;;4973180;28;20039;-69
2022/10/28 06:03:41;;;;;;;4.60;1.92;;;15.90;99.90;;;;;;4972925;28;20031;-69
2022/10/28 06:06:07;;;;;;;6.93;2.70;;;15.80;99.90;;;;;;4973895;28;20387;-69
2022/10/28 06:08:32;;;;;;;7.90;2.45;;;15.80;99.90;;;;;;4974014;28;20033;-69
2022/10/28 06:10:58;;;;;;;8.02;2.22;;;15.80;99.90;;;;;;4973686;28;20455;-69
2022/10/28 06:13:24;;;;;;;3.85;1.45;;;15.80;99.90;;;;;;4973146;28;20060;-69
2022/10/28 06:15:54;;;;;;;5.35;2.35;;;15.80;99.90;;;;;;4972702;28;20035;-69
2022/10/28 06:18:22;;;;;;;4.95;2.00;;;15.80;99.90;;;;;;4956260;28;20415;-69
2022/10/28 06:20:56;;;;;;;9.50;2.28;;;15.80;99.90;;;;;;4973679;28;20042;-69
2022/10/28 06:23:23;;;;;;;5.30;2.03;;;15.80;99.90;;;;;;4971871;28;20027;-69
2022/10/28 06:25:50;;;;;;;3.47;1.75;;;15.80;99.90;;;;;;4971500;28;20042;-69
2022/10/28 06:28:16;;;;;;;3.33;1.52;;;15.80;99.90;;;;;;4972368;28;20026;-70
2022/10/28 06:30:42;;;;;;;7.72;1.80;;;15.90;99.90;;;;;;4972502;28;20027;-70
2022/10/28 06:33:08;;;;;;;10.00;2.17;;;15.90;99.90;;;;;;4971562;28;20065;-69
2022/10/28 06:35:33;;;;;;;3.78;1.50;;;16.00;99.90;;;;;;4973348;28;20476;-70
2022/10/28 06:37:59;;;;;;;17.73;2.00;;;16.10;99.90;;;;;;4973440;28;20387;-69
2022/10/28 06:40:26;;;;;;;9.25;1.90;;;16.10;99.90;;;;;;4973045;28;20046;-68
2022/10/28 06:43:05;;;;;;;5.18;1.38;;;16.10;99.90;;;;;;4954410;28;20039;-68
2022/10/28 06:45:32;;;;;;;14.43;2.65;;;16.10;99.90;;;;;;4972068;28;20096;-71
2022/10/28 06:48:01;;;;;;;10.32;1.85;;;16.20;99.90;;;;;;4972045;28;20034;-70
2022/10/28 06:50:29;;;;;;;11.95;2.63;;;16.30;99.90;;;;;;4955874;28;20698;-68
2022/10/28 06:52:57;;;;;;;6.78;2.22;;;16.30;99.90;;;;;;4970850;28;20041;-68
2022/10/28 06:55:25;;;;;;;3.33;1.60;;;16.20;99.90;;;;;;4971566;28;20030;-69
2022/10/28 06:57:50;;;;;;;3.67;1.50;;;16.10;99.90;;;;;;4973133;28;20035;-68
2022/10/28 07:00:16;;;;;;;4.43;1.75;;;16.10;99.90;;;;;;4971784;28;20030;-68
2022/10/28 07:02:42;;;;;;;7.90;2.00;;;16.10;99.90;;;;;;4971714;28;20138;-69
2022/10/28 07:05:08;;;;;;;8.70;2.17;;;16.20;99.90;;;;;;4971034;28;20139;-69
2022/10/28 07:07:38;;;;;;;2.67;1.45;;;16.20;99.90;;;;;;4972408;28;20119;-69
2022/10/28 07:10:05;;;;;;;3.67;1.42;;;16.30;99.90;;;;;;4971558;28;20023;-69
2022/10/28 07:12:31;;;;;;;5.13;2.00;;;16.30;99.90;;;;;;4971810;28;20038;-69
2022/10/28 07:14:57;;;;;;;10.75;2.20;;;16.30;99.90;;;;;;4972603;28;20038;-69
2022/10/28 07:17:22;;;;;;;11.07;2.00;;;16.30;99.90;;;;;;4972564;28;20176;-69
2022/10/28 07:19:48;;;;;;;6.22;2.22;;;16.30;99.90;;;;;;4972491;28;20038;-69
2022/10/28 07:22:14;;;;;;;8.93;2.63;;;16.30;99.90;;;;;;4970991;28;20554;-69
2022/10/28 07:24:39;;;;;;;7.90;2.88;;;16.30;99.90;;;;;;4971922;28;20062;-69
2022/10/28 07:27:06;;;;;;;6.70;1.50;;;16.40;99.90;;;;;;4972512;28;20039;-69
2022/10/28 07:29:32;;;;;;;4.72;2.33;;;16.30;99.90;;;;;;4972236;28;20035;-69
2022/10/28 07:31:58;;;;;;;4.50;1.98;;;16.40;99.90;;;;;;4971943;28;20023;-69
2022/10/28 07:34:23;;;;;;;7.88;2.70;;;16.40;99.90;;;;;;4971633;28;20033;-70
2022/10/28 07:36:51;;;;;;;12.75;2.20;;;16.40;99.90;;;;;;4972289;28;20034;-70
2022/10/28 07:39:17;;;;;;;7.38;2.63;;;16.40;99.90;;;;;;4970701;28;20033;-69
2022/10/28 07:41:43;;;;;;;8.57;2.75;;;16.50;99.90;;;;;;4972366;28;20069;-70
2022/10/28 07:44:09;;;;;;;5.90;2.17;;;16.50;99.90;;;;;;4970276;28;20058;-69
2022/10/28 07:46:35;;;;;;;4.30;1.83;;;16.60;99.90;;;;;;4972198;28;20035;-70
2022/10/28 07:49:01;;;;;;;2.65;1.65;;;16.60;99.90;;;;;;4970646;28;20035;-69
2022/10/28 07:51:27;;;;;;;3.83;1.58;;;16.70;99.90;;;;;;4970826;28;20034;-69
2022/10/28 07:53:54;;;;;;;4.68;2.03;;;16.80;99.90;;;;;;4969836;28;20038;-70
2022/10/28 07:56:20;;;;;;;6.13;1.60;;;16.80;99.90;;;;;;4970905;28;20438;-69
2022/10/28 07:58:45;;;;;;;7.60;1.23;;;16.80;99.90;;;;;;4970411;28;20066;-69
2022/10/28 08:01:15;;;;;;;4.25;1.58;;;16.90;99.90;;;;;;4972126;28;20039;-69
2022/10/28 08:03:41;;;;;;;4.05;1.30;;;16.90;99.90;;;;;;4971323;28;20494;-69
2022/10/28 08:06:11;;;;;;;4.50;2.17;;;17.00;99.90;;;;;;4970862;28;20035;-69
2022/10/28 08:08:38;;;;;;;2.50;1.38;;;17.00;99.90;;;;;;4970276;28;20114;-70
2022/10/28 08:11:19;;;;;;;4.35;1.55;;;17.00;99.90;;;;;;4971765;28;20027;-69
2022/10/28 08:13:46;;;;;;;5.95;1.67;;;17.10;99.90;;;;;;4971291;28;20031;-70
2022/10/28 08:16:12;;;;;;;3.63;1.90;;;17.10;99.90;;;;;;4971760;28;20077;-69
2022/10/28 08:18:38;;;;;;;9.50;2.17;;;17.10;99.90;;;;;;4970655;28;20074;-69
2022/10/28 08:21:07;;;;;;;10.63;3.05;;;17.10;99.90;;;;;;4970733;28;20022;-70
2022/10/28 08:23:33;;;;;;;8.80;2.15;;;17.10;99.90;;;;;;4969939;28;20030;-69
2022/10/28 08:25:59;;;;;;;8.63;1.77;;;17.10;99.90;;;;;;4986795;28;20038;-69
2022/10/28 08:28:25;;;;;;;2.53;1.88;;;17.10;99.90;;;;;;4970796;28;20439;-69
2022/10/28 08:30:51;;;;;;;11.98;1.38;;;17.20;99.90;;;;;;4971478;28;20027;-69
2022/10/28 08:33:17;;;;;;;3.38;1.27;;;17.30;99.90;;;;;;4970550;28;20042;-69
2022/10/28 08:35:49;;;;;;;2.53;1.02;;;17.30;99.90;;;;;;4971923;28;20039;-70
2022/10/28 08:38:14;;;;;;;6.70;1.30;;;17.30;99.90;;;;;;4970471;28;20027;-69
2022/10/28 08:41:19;;;;;;;10.75;2.20;;;17.40;99.90;;;;;;4971806;28;20438;-69
2022/10/28 08:44:02;;;;;;;4.55;1.60;;;17.50;99.90;;;;;;4971206;28;20069;-69
2022/10/28 08:46:52;;;;;;;2.17;1.42;;;17.60;99.90;;;;;;4971588;28;20042;-69
2022/10/28 08:49:22;;;;;;;10.95;1.50;;;17.70;99.90;;;;;;5000784;23;20139;-84
2022/10/28 08:52:07;;;;;;;8.35;2.63;;;17.70;99.90;;;;;;5019281;28;20397;-85
2022/10/28 08:54:46;;;;;;;2.70;1.33;;;17.80;99.90;;;;;;5009452;28;20046;-85
2022/10/28 08:57:47;;;;;;;5.18;1.10;;;17.90;99.90;;;;;;4993664;28;20421;-84
2022/10/28 09:00:24;;;;;;;6.53;1.70;;;18.00;99.90;;;;;;5029449;28;20160;-85
2022/10/28 09:03:00;;;;;;;4.72;1.30;;;18.00;99.90;;;;;;5030735;28;20033;-85
2022/10/28 09:05:27;;;;;;;7.75;1.88;;;18.10;99.90;;;;;;5031581;28;20037;-86
2022/10/28 09:07:55;;;;;;;4.22;1.17;;;18.10;99.90;;;;;;5033004;28;20052;-86
2022/10/28 09:10:58;;;;;;;8.23;1.60;;;18.10;99.90;;;;;;5033275;28;20032;-85
2022/10/28 09:13:46;;;;;;;2.95;1.40;;;18.20;99.90;;;;;;5033506;28;20025;-84
2022/10/28 09:16:43;;;;;;;2.55;1.10;;;18.20;99.90;;;;;;5017788;28;20528;-86
2022/10/28 09:19:33;;;;;;;2.35;1.02;;;18.30;99.90;;;;;;5034228;28;20037;-85
2022/10/28 09:22:27;;;;;;;3.13;1.75;;;18.30;99.90;;;;;;5032745;28;20025;-85
2022/10/28 09:25:22;;;;;;;3.28;1.95;;;18.30;99.90;;;;;;5034281;28;20584;-84
2022/10/28 09:28:39;;;;;;;5.15;2.33;;;18.40;99.90;;;;;;5034199;28;20079;-85
2022/10/28 09:31:16;;;;;;;6.10;1.80;;;18.40;99.90;;;;;;5033905;28;20082;-85
2022/10/28 09:34:21;;;;;;;5.13;1.40;;;18.40;99.90;;;;;;5032194;28;20082;-85
2022/10/28 09:36:56;;;;;;;6.15;1.98;;;18.40;99.90;;;;;;5032738;28;20025;-85
2022/10/28 09:39:30;;;;;;;12.65;2.30;;;18.50;99.90;;;;;;5032976;28;20033;-86
2022/10/28 09:42:01;;;;;;;4.38;2.45;;;18.60;99.90;;;;;;5032501;28;20018;-85
2022/10/28 09:45:00;;;;;;;6.03;2.35;;;18.60;99.90;;;;;;5031841;28;20080;-85
2022/10/28 09:47:43;;;;;;;6.38;1.67;;;18.70;99.90;;;;;;5034265;28;20442;-85
2022/10/28 09:50:20;;;;;;;3.92;1.88;;;18.90;99.90;;;;;;5032082;28;20033;-86
2022/10/28 09:53:43;;;;;;;4.63;1.30;;;19.60;99.90;;;;;;5031665;28;20104;-85
2022/10/28 09:56:09;;;;;;;7.25;1.63;;;20.50;99.90;;;;;;4960573;28;20618;-86
2022/10/28 09:58:38;;;;;;;6.20;1.58;;;20.80;99.90;;;;;;5028811;28;20136;-86
2022/10/28 10:01:04;;;;;;;4.45;1.15;;;20.70;99.90;;;;;;5032547;28;20025;-85
2022/10/28 10:03:31;;;;;;;3.15;1.20;;;20.70;99.90;;;;;;5031222;28;20037;-85
2022/10/28 10:06:06;;;;;;;3.58;1.00;;;20.60;99.90;;;;;;5032380;28;20037;-87
2022/10/28 10:08:35;;;;;;;2.97;1.38;;;20.80;99.90;;;;;;5032354;28;20026;-85
2022/10/28 10:11:42;;;;;;;3.28;1.08;;;21.10;99.90;;;;;;5033421;28;20018;-85
2022/10/28 10:14:35;;;;;;;3.53;1.48;;;21.20;99.90;;;;;;4975380;28;20045;-86
2022/10/28 10:17:29;;;;;;;3.10;1.85;;;21.40;99.90;;;;;;5031880;28;20041;-86
2022/10/28 10:20:05;;;;;;;1.77;1.20;;;21.50;99.90;;;;;;5031515;28;20033;-86
2022/10/28 10:22:39;;;;;;;7.88;1.27;;;21.70;99.90;;;;;;5032961;28;20052;-86
2022/10/28 10:25:31;;;;;;;3.47;1.40;;;22.20;99.90;;;;;;5032954;28;20045;-86
2022/10/28 10:28:02;;;;;;;5.82;1.40;;;23.10;99.90;;;;;;5030722;28;20437;-86
2022/10/28 10:30:47;;;;;;;4.82;1.98;;;22.60;99.90;;;;;;5031772;28;20083;-85
2022/10/28 10:33:39;;;;;;;9.55;1.60;;;22.70;99.90;;;;;;5031033;28;20500;-85
2022/10/28 10:36:08;;;;;;;7.50;1.92;;;22.40;99.90;;;;;;5030653;28;20107;-85
2022/10/28 10:38:35;;;;;;;2.65;1.48;;;21.90;99.90;;;;;;5032375;28;20033;-86
2022/10/28 10:41:00;;;;;;;4.07;1.42;;;22.00;99.90;;;;;;5030964;28;20063;-85
2022/10/28 10:43:26;;;;;;;6.55;2.35;;;22.40;99.90;;;;;;5030496;28;20053;-86
2022/10/28 10:45:57;;;;;;;10.18;1.77;;;22.10;99.90;;;;;;5032205;28;20592;-86
2022/10/28 10:48:24;;;;;;;5.85;1.65;;;21.70;99.90;;;;;;5032054;28;20045;-86
2022/10/28 10:50:51;;;;;;;9.73;2.17;;;21.90;99.90;;;;;;5032239;28;20045;-86
2022/10/28 10:53:27;;;;;;;3.53;1.35;;;22.30;99.90;;;;;;5030343;28;20025;-86
2022/10/28 10:56:01;;;;;;;9.65;1.52;;;22.80;99.90;;;;;;5031109;28;20120;-85
2022/10/28 10:58:36;;;;;;;3.88;1.90;;;23.70;99.90;;;;;;5030413;28;20063;-86
2022/10/28 11:01:06;;;;;;;11.38;1.98;;;23.90;99.90;;;;;;5030842;28;20132;-85
2022/10/28 11:04:04;;;;;;;4.35;1.77;;;23.60;99.90;;;;;;5029754;28;20061;-86
2022/10/28 11:06:42;;;;;;;4.55;1.45;;;23.80;99.90;;;;;;5015486;28;20545;-86
2022/10/28 11:09:33;;;;;;;3.03;1.48;;;24.10;99.90;;;;;;5031893;28;20037;-87
2022/10/28 11:11:59;;;;;;;4.28;1.45;;;23.90;99.90;;;;;;5031345;28;20454;-86
2022/10/28 11:14:31;;;;;;;2.35;1.00;;;24.40;99.90;;;;;;5030598;28;20104;-85
2022/10/28 11:17:01;;;;;;;4.65;1.33;;;25.20;99.20;;;;;;5030357;28;20045;-85
2022/10/28 11:19:35;;;;;;;;;;;25.50;97.60;;;;;;5031667;28;20757;-85
2022/10/28 11:22:16;;;;;;;4.40;1.17;;;24.90;98.30;;;;;;5030585;28;20266;-85
2022/10/28 11:25:06;;;;;;;;;;;24.50;98.50;;;;;;5032779;28;20034;-86
2022/10/28 11:28:18;;;;;;;12.88;1.60;;;24.90;97.90;;;;;;5034568;28;19951;-86
2022/10/28 11:31:15;;;;;;;5.45;2.10;;;24.70;98.60;;;;;;5033180;28;20560;-87
2022/10/28 11:34:12;;;;;;;6.30;1.48;;;24.80;97.40;;;;;;5031803;28;20025;-87
2022/10/28 11:37:09;;;;;;;1.98;1.35;;;25.30;98.00;;;;;;5030369;28;20033;-86
2022/10/28 11:40:24;;;;;;;3.88;1.10;;;25.30;97.20;;;;;;5030131;28;20029;-87
2022/10/28 11:43:31;;;;;;;3.15;0.88;;;25.90;96.60;;;;;;5030973;28;20041;-87
2022/10/28 11:46:44;;;;;;;7.45;1.50;;;25.70;96.30;;;;;;5031181;28;20037;-86
2022/10/28 11:49:57;;;;;;;4.65;1.40;;;26.70;96.30;;;;;;5031292;28;20379;-87
2022/10/28 11:52:55;;;;;;;11.38;1.08;;;27.50;93.90;;;;;;5030892;28;20040;-87
2022/10/28 11:55:52;;;;;;;5.15;1.92;;;28.30;92.60;;;;;;5031365;28;20037;-87
2022/10/28 11:59:17;;;;;;;7.38;1.60;;;28.50;91.70;;;;;;5031034;28;20037;-86
2022/10/28 12:01:42;;;;;;;3.55;1.42;;;26.60;93.30;;;;;;4963870;28;20369;-85
2022/10/28 12:04:48;;;;;;;5.47;1.65;;;26.30;94.70;;;;;;5030665;28;20052;-86
2022/10/28 12:07:23;;;;;;;5.70;1.42;;;26.90;94.00;;;;;;5029746;28;20033;-87
2022/10/28 12:10:06;;;;;;;3.72;1.50;;;27.10;93.00;;;;;;5030955;28;20032;-85
2022/10/28 12:13:29;;;;;;;4.50;1.25;;;26.60;94.20;;;;;;5029950;28;20033;-85
2022/10/28 12:16:28;;;;;;;2.97;1.27;;;26.80;92.50;;;;;;5013524;28;20044;-85
2022/10/28 12:19:28;;;;;;;6.18;1.38;;;26.70;93.00;;;;;;5030856;28;20029;-86
2022/10/28 12:22:12;;;;;;;5.53;1.38;;;26.60;93.60;;;;;;5029477;28;20039;-86
2022/10/28 12:24:42;;;;;;;6.45;1.63;;;26.40;93.50;;;;;;5029430;28;20342;-85
2022/10/28 12:27:36;;;;;;;6.90;1.13;;;26.80;93.60;;;;;;5030523;28;20025;-86
2022/10/28 12:30:08;;;;;;;9.60;1.80;;;26.70;94.40;;;;;;5029772;28;20366;-87
2022/10/28 12:32:36;;;;;;;2.85;1.05;;;27.30;93.10;;;;;;5030332;28;20041;-84
2022/10/28 12:35:20;;;;;;;5.05;1.00;;;27.70;92.70;;;;;;5029363;28;20033;-86
2022/10/28 12:38:07;;;;;;;3.83;1.30;;;27.60;91.50;;;;;;5030873;28;20046;-85
2022/10/28 12:41:09;;;;;;;3.92;1.45;;;27.90;91.60;;;;;;5030762;28;20037;-85
2022/10/28 12:44:01;;;;;;;6.38;1.55;;;27.60;91.60;;;;;;5033688;28;20029;-85
2022/10/28 12:47:07;;;;;;;3.78;1.20;;;27.00;92.30;;;;;;5034687;28;20083;-84
2022/10/28 12:50:03;;;;;;;8.65;3.25;;;26.90;92.90;;;;;;5011715;28;20045;-84
2022/10/28 12:52:40;;;;;;;11.40;1.42;;;26.50;92.80;;;;;;5032735;28;20028;-85
2022/10/28 12:55:12;;;;;;;2.47;0.70;;;25.50;93.90;;;;;;5033050;28;20114;-85
2022/10/28 12:57:42;;;;;;;6.50;1.27;;;25.20;94.80;;;;;;5034216;28;20037;-85
2022/10/28 13:00:26;;;;;;;10.93;1.52;;;25.10;95.10;;;;;;5033141;28;20039;-83
2022/10/28 13:03:06;;;;;;;6.38;1.17;;;25.70;94.40;;;;;;5031897;28;20508;-85
2022/10/28 13:06:04;;;;;;;2.00;1.02;;;26.10;93.70;;;;;;5032794;28;20041;-85
2022/10/28 13:08:54;;;;;;;2.55;1.08;;;26.00;93.30;;;;;;5034656;28;20033;-85
2022/10/28 13:11:49;;;;;;;3.92;1.20;;;26.70;93.50;;;;;;5033113;28;20087;-85
2022/10/28 13:14:53;;;;;;;8.93;1.70;;;27.90;92.00;;;;;;5033193;28;20095;-83
2022/10/28 13:18:01;;;;;;;3.22;1.30;;;27.40;92.10;;;;;;5033587;28;20079;-83
2022/10/28 13:21:07;;;;;;;2.53;1.02;;;26.40;92.50;;;;;;5033709;28;20498;-83
2022/10/28 13:24:15;;;;;;;9.15;2.35;;;26.10;93.10;;;;;;5033106;28;20041;-85
2022/10/28 13:26:44;;;;;;;7.65;1.40;;;25.20;94.60;;;;;;5033042;28;20060;-84